createdAt,value
2022-11-24T00:01:36.273Z,19.30
2022-11-24T00:04:24.271Z,18.70
2022-11-24T00:07:12.397Z,18.80
2022-11-24T00:10:00.051Z,18.10
2022-11-24T00:12:47.575Z,17.70
2022-11-24T00:15:34.983Z,18.50
2022-11-24T00:18:22.391Z,18.20
2022-11-24T00:21:10.736Z,17.20
2022-11-24T00:23:58.312Z,18.50
2022-11-24T00:26:45.608Z,18.50
2022-11-24T00:29:33.347Z,18.40
2022-11-24T00:32:20.991Z,19.50
2022-11-24T00:35:09.147Z,18.00
2022-11-24T00:37:56.593Z,20.50
2022-11-24T00:40:44.380Z,19.70
2022-11-24T00:43:32.335Z,19.80
2022-11-24T00:46:21.209Z,19.80
2022-11-24T00:49:09.167Z,19.90
2022-11-24T00:51:56.919Z,19.90
2022-11-24T00:54:44.837Z,13.20
2022-11-24T00:57:35.619Z,19.90
2022-11-24T01:00:23.234Z,21.40
2022-11-24T01:03:10.882Z,16.90
2022-11-24T01:06:18.299Z,19.00
2022-11-24T01:09:06.095Z,17.90
2022-11-24T01:12:02.505Z,20.10
2022-11-24T01:14:50.125Z,19.10
2022-11-24T01:17:37.639Z,20.80
2022-11-24T01:20:25.368Z,21.90
2022-11-24T01:23:13.014Z,22.50
2022-11-24T01:26:05.032Z,23.00
2022-11-24T01:28:57.348Z,21.90
2022-11-24T01:31:45.126Z,21.70
2022-11-24T01:34:32.889Z,22.30
2022-11-24T01:37:20.705Z,22.50
2022-11-24T01:40:09.644Z,19.20
2022-11-24T01:42:57.506Z,21.10
2022-11-24T01:45:45.833Z,22.00
2022-11-24T01:48:43.949Z,22.30
2022-11-24T01:51:37.121Z,22.90
2022-11-24T01:54:31.584Z,22.60
2022-11-24T01:57:35.655Z,22.90
2022-11-24T02:00:23.541Z,15.80
2022-11-24T02:03:20.009Z,23.60
2022-11-24T02:06:17.098Z,24.70
2022-11-24T02:09:16.700Z,22.50
2022-11-24T02:12:06.182Z,21.80
2022-11-24T02:14:56.094Z,22.30
2022-11-24T02:17:44.366Z,23.20
2022-11-24T02:20:32.463Z,23.50
2022-11-24T02:24:08.205Z,21.80
2022-11-24T02:26:56.281Z,23.00
2022-11-24T02:29:44.451Z,17.70
2022-11-24T02:32:33.522Z,23.00
2022-11-24T02:35:21.607Z,23.10
2022-11-24T02:38:13.984Z,22.40
2022-11-24T02:41:07.839Z,23.10
2022-11-24T02:43:59.580Z,22.10
2022-11-24T02:46:47.612Z,22.20
2022-11-24T02:49:35.869Z,22.40
2022-11-24T02:52:23.594Z,19.30
2022-11-24T02:55:11.572Z,22.20
2022-11-24T02:57:59.343Z,23.00
2022-11-24T03:00:47.880Z,23.10
2022-11-24T03:03:35.746Z,20.10
2022-11-24T03:06:23.524Z,22.00
2022-11-24T03:09:11.650Z,21.20
2022-11-24T03:11:59.385Z,20.70
2022-11-24T03:14:47.062Z,20.50
2022-11-24T03:17:34.560Z,20.90
2022-11-24T03:20:22.217Z,21.00
2022-11-24T03:23:10.025Z,16.60
2022-11-24T03:26:12.269Z,20.40
2022-11-24T03:28:59.696Z,18.70
2022-11-24T03:31:47.546Z,17.10
2022-11-24T03:34:35.458Z,19.00
2022-11-24T03:37:23.566Z,19.00
2022-11-24T03:40:11.798Z,18.10
2022-11-24T03:42:59.470Z,18.60
2022-11-24T03:45:49.351Z,15.50
2022-11-24T03:48:36.822Z,19.60
2022-11-24T03:51:24.536Z,17.90
2022-11-24T03:54:12.734Z,17.80
2022-11-24T03:57:00.306Z,20.00
2022-11-24T03:59:48.043Z,18.50
2022-11-24T04:02:35.530Z,19.30
2022-11-24T04:05:25.325Z,19.60
2022-11-24T04:08:14.187Z,14.40
2022-11-24T04:11:01.930Z,19.20
2022-11-24T04:13:49.893Z,17.50
2022-11-24T04:16:37.705Z,18.60
2022-11-24T04:19:25.694Z,20.40
2022-11-24T04:22:13.408Z,21.10
2022-11-24T04:25:00.804Z,19.30
2022-11-24T04:27:53.155Z,20.10
2022-11-24T04:30:44.967Z,18.00
2022-11-24T04:33:33.341Z,18.20
2022-11-24T04:36:21.327Z,16.30
2022-11-24T04:39:23.901Z,19.30
2022-11-24T04:42:14.918Z,17.90
2022-11-24T04:45:02.997Z,16.20
2022-11-24T04:47:51.171Z,18.10
2022-11-24T04:50:40.058Z,16.70
2022-11-24T04:53:28.250Z,18.80
2022-11-24T04:56:15.659Z,16.20
2022-11-24T04:59:07.999Z,17.00
2022-11-24T05:01:56.271Z,17.10
2022-11-24T05:04:44.997Z,17.30
2022-11-24T05:07:35.126Z,17.30
2022-11-24T05:10:37.889Z,17.00
2022-11-24T05:13:25.528Z,17.40
2022-11-24T05:16:13.188Z,15.40
2022-11-24T05:19:01.106Z,15.90
2022-11-24T05:21:48.713Z,11.60
2022-11-24T05:24:36.416Z,12.60
2022-11-24T05:27:24.652Z,15.50
2022-11-24T05:30:12.819Z,17.90
2022-11-24T05:33:07.363Z,13.30
2022-11-24T05:35:55.370Z,12.80
2022-11-24T05:38:42.805Z,16.50
2022-11-24T05:41:30.135Z,15.90
2022-11-24T05:44:18.156Z,16.20
2022-11-24T05:47:05.656Z,17.00
2022-11-24T05:49:53.254Z,15.50
2022-11-24T05:52:41.214Z,15.00
2022-11-24T05:55:28.968Z,16.80
2022-11-24T05:58:16.754Z,17.60
2022-11-24T06:01:07.864Z,16.90
2022-11-24T06:03:55.288Z,15.20
2022-11-24T06:06:42.982Z,16.80
2022-11-24T06:09:30.587Z,16.50
2022-11-24T06:12:18.519Z,16.50
2022-11-24T06:15:06.918Z,11.90
2022-11-24T06:17:56.145Z,12.70
2022-11-24T06:20:49.104Z,14.20
2022-11-24T06:23:51.004Z,13.20
2022-11-24T06:26:38.683Z,14.40
2022-11-24T06:29:26.111Z,12.10
2022-11-24T06:32:14.536Z,13.90
2022-11-24T06:35:02.201Z,14.60
2022-11-24T06:37:49.615Z,14.80
2022-11-24T06:40:37.319Z,14.20
2022-11-24T06:43:27.938Z,13.00
2022-11-24T06:46:15.580Z,14.90
2022-11-24T06:49:03.626Z,14.40
2022-11-24T06:51:51.589Z,14.90
2022-11-24T06:54:39.532Z,14.10
2022-11-24T06:57:31.257Z,14.80
2022-11-24T07:00:19.474Z,13.60
2022-11-24T07:03:06.906Z,14.50
2022-11-24T07:05:58.702Z,13.50
2022-11-24T07:08:47.333Z,14.90
2022-11-24T07:11:38.165Z,15.60
2022-11-24T07:14:25.993Z,15.50
2022-11-24T07:17:13.627Z,16.90
2022-11-24T07:20:01.353Z,16.50
2022-11-24T07:22:48.939Z,15.70
2022-11-24T07:25:36.413Z,13.10
2022-11-24T07:28:24.285Z,13.40
2022-11-24T07:31:19.095Z,12.10
2022-11-24T07:34:06.612Z,18.10
2022-11-24T07:36:54.063Z,17.90
2022-11-24T07:39:41.861Z,16.90
2022-11-24T07:42:29.700Z,15.60
2022-11-24T07:45:17.494Z,17.30
2022-11-24T07:48:05.615Z,16.70
2022-11-24T07:50:56.550Z,15.70
2022-11-24T07:53:45.427Z,17.90
2022-11-24T07:56:33.255Z,18.50
2022-11-24T07:59:21.151Z,18.50
2022-11-24T08:02:13.033Z,18.50
2022-11-24T08:05:01.217Z,19.60
2022-11-24T08:07:49.413Z,18.40
2022-11-24T08:10:37.036Z,17.70
2022-11-24T08:13:24.509Z,18.90
2022-11-24T08:16:15.513Z,17.00
2022-11-24T08:19:03.215Z,17.90
2022-11-24T08:21:50.950Z,18.40
2022-11-24T08:24:38.696Z,19.60
2022-11-24T08:27:26.179Z,18.70
2022-11-24T08:30:14.530Z,18.90
2022-11-24T08:33:02.282Z,15.50
2022-11-24T08:35:50.032Z,18.20
2022-11-24T08:38:38.467Z,16.80
2022-11-24T08:41:28.002Z,18.10
2022-11-24T08:44:16.054Z,18.30
2022-11-24T08:47:03.698Z,18.40
2022-11-24T08:49:51.247Z,18.50
2022-11-24T08:52:38.854Z,18.90
2022-11-24T08:55:26.566Z,18.10
2022-11-24T08:58:14.156Z,17.50
2022-11-24T09:01:19.804Z,19.50
2022-11-24T09:04:07.555Z,19.80
2022-11-24T09:06:54.975Z,20.00
2022-11-24T09:09:42.317Z,19.00
2022-11-24T09:12:29.902Z,20.30
2022-11-24T09:15:19.063Z,17.30
2022-11-24T09:18:06.455Z,17.60
2022-11-24T09:20:57.407Z,15.90
2022-11-24T09:23:50.168Z,19.70
2022-11-24T09:26:44.625Z,19.30
2022-11-24T09:29:35.801Z,18.40
2022-11-24T09:32:23.891Z,15.80
2022-11-24T09:35:11.560Z,15.60
2022-11-24T09:37:59.076Z,17.50
2022-11-24T09:40:46.961Z,18.60
2022-11-24T09:43:46.279Z,17.80
2022-11-24T09:47:14.850Z,19.00
2022-11-24T09:50:11.638Z,19.60
2022-11-24T09:53:13.501Z,18.70
2022-11-24T09:56:31.002Z,16.70
2022-11-24T09:59:23.498Z,17.50
2022-11-24T10:02:13.352Z,18.10
2022-11-24T10:05:01.277Z,13.20
2022-11-24T10:08:17.231Z,14.00
2022-11-24T10:11:21.249Z,14.00
2022-11-24T10:14:59.222Z,16.70
2022-11-24T10:18:17.426Z,18.30
2022-11-24T10:21:36.940Z,17.00
2022-11-24T10:24:50.575Z,16.60
2022-11-24T10:27:45.076Z,17.50
2022-11-24T10:30:32.794Z,18.70
2022-11-24T10:33:30.020Z,17.60
2022-11-24T10:36:48.447Z,19.80
2022-11-24T10:40:40.401Z,18.30
2022-11-24T10:43:21.917Z,16.00
2022-11-24T10:46:24.655Z,16.90
2022-11-24T10:49:25.228Z,19.00
2022-11-24T10:52:18.843Z,19.10
2022-11-24T10:55:06.849Z,18.30
2022-11-24T10:57:54.460Z,21.20
2022-11-24T11:00:42.087Z,18.70
2022-11-24T11:03:34.043Z,19.40
2022-11-24T11:06:28.687Z,17.50
2022-11-24T11:09:20.022Z,19.30
2022-11-24T11:12:42.755Z,18.70
2022-11-24T11:15:31.639Z,19.80
2022-11-24T11:18:20.988Z,20.00
2022-11-24T11:21:24.207Z,18.70
2022-11-24T11:24:18.251Z,19.80
2022-11-24T11:27:19.827Z,18.00
2022-11-24T11:36:50.097Z,16.40
2022-11-24T11:39:48.496Z,19.40
2022-11-24T11:43:03.924Z,17.70
2022-11-24T11:46:04.132Z,19.00
2022-11-24T11:48:52.752Z,18.70
2022-11-24T11:52:18.316Z,15.70
2022-11-24T11:55:50.261Z,19.00
2022-11-24T11:58:59.168Z,17.60
2022-11-24T12:02:05.338Z,19.60
2022-11-24T12:05:04.083Z,18.90
2022-11-24T12:08:27.990Z,20.80
2022-11-24T12:11:31.070Z,21.90
2022-11-24T12:14:44.810Z,19.50
2022-11-24T12:17:42.823Z,17.60
2022-11-24T12:21:02.483Z,16.60
2022-11-24T12:24:21.989Z,19.80
2022-11-24T12:28:03.686Z,20.90
2022-11-24T12:31:08.122Z,20.50
2022-11-24T12:34:17.874Z,20.70
2022-11-24T12:38:00.455Z,20.10
2022-11-24T12:41:45.573Z,20.10
2022-11-24T12:44:48.089Z,20.00
2022-11-24T12:47:57.217Z,19.30
2022-11-24T12:50:46.088Z,19.50
2022-11-24T12:53:37.414Z,18.40
2022-11-24T12:56:43.430Z,21.80
2022-11-24T12:59:45.306Z,19.70
2022-11-24T13:02:48.871Z,20.30
2022-11-24T13:05:51.965Z,20.80
2022-11-24T13:08:40.773Z,20.10
2022-11-24T13:11:40.115Z,20.80
2022-11-24T13:14:34.281Z,21.80
2022-11-24T13:17:44.653Z,20.20
2022-11-24T13:20:40.897Z,16.40
2022-11-24T13:23:29.264Z,19.00
2022-11-24T13:26:42.862Z,20.20
2022-11-24T13:29:36.289Z,17.40
2022-11-24T13:32:44.160Z,20.70
2022-11-24T13:35:31.962Z,22.30
2022-11-24T13:38:53.885Z,23.00
2022-11-24T13:41:41.552Z,22.70
2022-11-24T13:44:43.533Z,15.30
2022-11-24T13:47:45.329Z,20.30
2022-11-24T13:51:02.658Z,20.30
2022-11-24T13:53:53.666Z,19.30
2022-11-24T13:56:41.170Z,21.60
2022-11-24T13:59:35.468Z,21.70
2022-11-24T14:02:24.226Z,22.10
2022-11-24T14:05:22.726Z,20.90
2022-11-24T14:08:21.217Z,17.00
2022-11-24T14:11:15.464Z,18.90
2022-11-24T14:14:20.709Z,18.70
2022-11-24T14:17:16.933Z,21.80
2022-11-24T14:20:23.494Z,18.70
2022-11-24T14:23:11.392Z,15.30
2022-11-24T14:25:59.452Z,17.90
2022-11-24T14:28:48.034Z,15.30
2022-11-24T14:31:35.816Z,21.20
2022-11-24T14:34:26.023Z,21.20
2022-11-24T14:37:13.607Z,19.20
2022-11-24T14:40:01.215Z,22.50
2022-11-24T14:42:50.973Z,19.60
2022-11-24T14:45:39.314Z,19.50
2022-11-24T14:48:50.803Z,14.70
2022-11-24T14:51:44.361Z,16.00
2022-11-24T14:54:32.781Z,12.90
2022-11-24T14:57:30.557Z,18.50
2022-11-24T15:00:32.618Z,19.60
2022-11-24T15:03:20.481Z,19.40
2022-11-24T15:06:19.904Z,20.20
2022-11-24T15:09:34.671Z,20.90
2022-11-24T15:12:48.553Z,20.10
2022-11-24T15:15:38.550Z,21.50
2022-11-24T15:18:48.903Z,19.20
2022-11-24T15:21:37.456Z,20.40
2022-11-24T15:24:25.165Z,19.00
2022-11-24T15:27:13.088Z,20.40
2022-11-24T15:30:00.665Z,20.50
2022-11-24T15:32:55.381Z,21.30
2022-11-24T15:35:43.772Z,19.80
2022-11-24T15:38:31.677Z,19.60
2022-11-24T15:41:21.563Z,18.00
2022-11-24T15:44:10.343Z,14.10
2022-11-24T15:46:58.013Z,18.60
2022-11-24T15:49:45.442Z,17.20
2022-11-24T15:52:32.925Z,21.60
2022-11-24T15:55:22.450Z,25.10
2022-11-24T15:58:13.805Z,24.60
2022-11-24T16:01:01.511Z,22.90
2022-11-24T16:03:49.655Z,23.20
2022-11-24T16:06:37.300Z,24.40
2022-11-24T16:09:25.040Z,26.20
2022-11-24T16:12:12.613Z,24.20
2022-11-24T16:15:00.328Z,22.30
2022-11-24T16:17:48.397Z,24.60
2022-11-24T16:20:36.303Z,22.90
2022-11-24T16:23:23.871Z,26.00
2022-11-24T16:26:11.810Z,25.00
2022-11-24T16:28:59.532Z,23.00
2022-11-24T16:31:47.706Z,24.70
2022-11-24T16:34:35.582Z,22.80
2022-11-24T16:37:23.483Z,24.70
2022-11-24T16:40:11.980Z,20.90
2022-11-24T16:42:59.957Z,20.60
2022-11-24T16:46:21.353Z,25.10
2022-11-24T16:49:09.247Z,26.30
2022-11-24T16:51:56.908Z,26.30
2022-11-24T16:54:47.302Z,25.00
2022-11-24T16:57:36.914Z,24.50
2022-11-24T17:00:24.845Z,24.60
2022-11-24T17:03:12.595Z,22.00
2022-11-24T17:06:01.020Z,22.30
2022-11-24T17:08:48.712Z,17.00
2022-11-24T17:11:36.747Z,22.10
2022-11-24T17:14:24.469Z,24.40
2022-11-24T17:17:12.045Z,25.10
2022-11-24T17:20:00.025Z,25.50
2022-11-24T17:22:49.910Z,24.70
2022-11-24T17:25:37.972Z,23.90
2022-11-24T17:28:27.910Z,24.20
2022-11-24T17:31:33.304Z,23.90
2022-11-24T17:34:20.812Z,18.70
2022-11-24T17:37:08.675Z,24.10
2022-11-24T17:40:20.800Z,23.10
2022-11-24T17:43:04.511Z,25.40
2022-11-24T17:45:57.589Z,25.90
2022-11-24T17:48:47.013Z,25.40
2022-11-24T17:51:35.201Z,24.90
2022-11-24T17:57:30.329Z,26.40
2022-11-24T18:00:18.587Z,23.10
2022-11-24T18:03:06.333Z,24.80
2022-11-24T18:05:53.892Z,22.50
2022-11-24T18:08:45.713Z,25.80
2022-11-24T18:11:33.291Z,25.70
2022-11-24T18:14:21.095Z,24.60
2022-11-24T18:17:10.187Z,24.30
2022-11-24T18:19:57.908Z,26.20
2022-11-24T18:25:59.590Z,21.00
2022-11-24T18:28:47.737Z,22.40
2022-11-24T18:31:36.343Z,22.80
2022-11-24T18:34:24.847Z,21.20
2022-11-24T18:37:14.794Z,22.50
2022-11-24T18:40:02.932Z,23.80
2022-11-24T18:42:50.445Z,24.90
2022-11-24T18:45:38.740Z,23.80
2022-11-24T18:48:26.914Z,23.90
2022-11-24T18:51:14.851Z,23.00
2022-11-24T18:54:04.815Z,20.70
2022-11-24T18:56:52.331Z,18.40
2022-11-24T18:59:40.030Z,15.40
2022-11-24T19:02:27.635Z,17.70
2022-11-24T19:05:15.564Z,23.70
2022-11-24T19:08:05.642Z,21.40
2022-11-24T19:10:53.298Z,23.30
2022-11-24T19:13:41.035Z,24.60
2022-11-24T19:16:29.219Z,23.40
2022-11-24T19:19:17.540Z,26.30
2022-11-24T19:22:05.527Z,24.40
2022-11-24T19:24:55.116Z,20.30
2022-11-24T19:27:42.782Z,22.90
2022-11-24T19:30:30.384Z,24.90
2022-11-24T19:33:18.969Z,29.80
2022-11-24T19:36:11.057Z,25.30
2022-11-24T19:38:59.818Z,23.10
2022-11-24T19:41:47.450Z,26.40
2022-11-24T19:44:36.479Z,25.90
2022-11-24T19:47:24.379Z,21.40
2022-11-24T19:50:12.326Z,21.90
2022-11-24T19:53:00.132Z,22.90
2022-11-24T19:55:49.469Z,26.00
2022-11-24T19:58:38.062Z,25.80
2022-11-24T20:01:32.175Z,26.70
2022-11-24T20:04:20.584Z,29.70
2022-11-24T20:07:08.224Z,29.20
2022-11-24T20:09:59.880Z,26.20
2022-11-24T20:12:50.994Z,24.60
2022-11-24T20:15:38.760Z,23.60
2022-11-24T20:18:27.234Z,24.50
2022-11-24T20:21:21.149Z,25.00
2022-11-24T20:24:17.261Z,25.00
2022-11-24T20:27:06.341Z,24.40
2022-11-24T20:29:54.257Z,29.20
2022-11-24T20:32:41.584Z,27.10
2022-11-24T20:35:29.235Z,24.30
2022-11-24T20:38:16.754Z,24.70
2022-11-24T20:41:11.914Z,26.40
2022-11-24T20:44:05.179Z,25.90
2022-11-24T20:46:56.854Z,22.40
2022-11-24T20:49:44.720Z,23.90
2022-11-24T20:52:32.881Z,24.50
2022-11-24T20:55:20.585Z,22.30
2022-11-24T20:58:08.328Z,24.50
2022-11-24T21:01:02.971Z,26.30
2022-11-24T21:03:58.384Z,24.80
2022-11-24T21:06:46.885Z,23.10
2022-11-24T21:09:34.527Z,28.70
2022-11-24T21:12:21.978Z,24.80
2022-11-24T21:15:09.926Z,20.10
2022-11-24T21:17:57.536Z,22.70
2022-11-24T21:20:47.145Z,24.30
2022-11-24T21:23:34.660Z,22.30
2022-11-24T21:26:24.747Z,24.10
2022-11-24T21:29:14.291Z,25.50
2022-11-24T21:32:04.832Z,29.40
2022-11-24T21:34:52.584Z,23.70
2022-11-24T21:37:40.144Z,27.90
2022-11-24T21:40:28.537Z,27.40
2022-11-24T21:43:16.113Z,27.40
2022-11-24T21:46:12.682Z,25.60
2022-11-24T21:49:00.579Z,24.70
2022-11-24T21:51:55.366Z,25.90
2022-11-24T21:54:43.397Z,22.40
2022-11-24T21:57:31.462Z,20.30
2022-11-24T22:00:19.999Z,25.80
2022-11-24T22:03:08.031Z,26.30
2022-11-24T22:06:01.862Z,28.20
2022-11-24T22:08:50.127Z,28.70
2022-11-24T22:11:38.206Z,29.30
2022-11-24T22:14:27.665Z,29.40
2022-11-24T22:17:16.635Z,26.10
2022-11-24T22:20:06.721Z,22.50
2022-11-24T22:22:54.319Z,23.10
2022-11-24T22:25:41.769Z,27.00
2022-11-24T22:28:35.354Z,27.50
2022-11-24T22:31:30.395Z,27.20
2022-11-24T22:34:18.073Z,27.40
2022-11-24T22:37:05.821Z,26.60
2022-11-24T22:39:55.462Z,28.10
2022-11-24T22:42:44.213Z,24.70
2022-11-24T22:45:35.937Z,20.50
2022-11-24T22:48:35.793Z,25.90
2022-11-24T22:51:27.643Z,24.50
2022-11-24T22:54:15.927Z,24.70
2022-11-24T22:57:04.045Z,27.30
2022-11-24T22:59:51.587Z,26.50
2022-11-24T23:02:39.096Z,29.60
2022-11-24T23:05:27.063Z,29.50
2022-11-24T23:08:16.268Z,30.10
2022-11-24T23:11:08.066Z,30.30
2022-11-24T23:13:57.048Z,28.60
2022-11-24T23:16:44.849Z,27.60
2022-11-24T23:19:32.388Z,27.20
2022-11-24T23:22:19.976Z,22.70
2022-11-24T23:25:08.091Z,28.10
2022-11-24T23:27:55.773Z,28.90
2022-11-24T23:30:43.743Z,28.10
2022-11-24T23:33:32.254Z,30.10
2022-11-24T23:36:21.074Z,29.90
2022-11-24T23:39:12.336Z,26.10
2022-11-24T23:42:00.088Z,21.70
2022-11-24T23:44:47.784Z,25.60
2022-11-24T23:47:35.444Z,23.90
2022-11-24T23:50:22.862Z,26.00
2022-11-24T23:53:10.536Z,25.30
2022-11-24T23:55:58.398Z,27.10
2022-11-24T23:58:46.651Z,26.40
